sensor_id;sensor_type;location;lat;lon;timestamp;temperature;humidity
63260;DHT22;49390;51.380;0.098;2023-11-21T00:00:16;11.40;99.90
63260;DHT22;49390;51.380;0.098;2023-11-21T00:03:04;11.40;99.90
63260;DHT22;49390;51.380;0.098;2023-11-21T00:05:32;11.40;99.90
63260;DHT22;49390;51.380;0.098;2023-11-21T00:08:00;11.40;99.90
63260;DHT22;49390;51.380;0.098;2023-11-21T00:10:28;11.50;99.90
63260;DHT22;49390;51.380;0.098;2023-11-21T00:12:56;11.40;99.90
63260;DHT22;49390;51.380;0.098;2023-11-21T00:15:23;11.50;99.90
63260;DHT22;49390;51.380;0.098;2023-11-21T00:17:51;11.40;99.90
63260;DHT22;49390;51.380;0.098;2023-11-21T00:20:19;11.50;99.90
63260;DHT22;49390;51.380;0.098;2023-11-21T00:22:47;11.50;99.90
63260;DHT22;49390;51.380;0.098;2023-11-21T00:25:15;11.50;99.90
63260;DHT22;49390;51.380;0.098;2023-11-21T00:27:45;11.50;99.90
63260;DHT22;49390;51.380;0.098;2023-11-21T00:30:13;11.50;99.90
63260;DHT22;49390;51.380;0.098;2023-11-21T00:32:41;11.50;99.90
63260;DHT22;49390;51.380;0.098;2023-11-21T00:35:09;11.50;99.90
63260;DHT22;49390;51.380;0.098;2023-11-21T00:37:37;11.50;99.90
63260;DHT22;49390;51.380;0.098;2023-11-21T00:40:07;11.50;99.90
63260;DHT22;49390;51.380;0.098;2023-11-21T00:42:35;11.50;99.90
63260;DHT22;49390;51.380;0.098;2023-11-21T00:45:04;11.50;99.90
63260;DHT22;49390;51.380;0.098;2023-11-21T00:47:32;11.50;99.90
63260;DHT22;49390;51.380;0.098;2023-11-21T00:50:01;11.50;99.90
63260;DHT22;49390;51.380;0.098;2023-11-21T00:52:28;11.50;99.90
63260;DHT22;49390;51.380;0.098;2023-11-21T00:54:56;11.50;99.90
63260;DHT22;49390;51.380;0.098;2023-11-21T00:57:26;11.50;99.90
63260;DHT22;49390;51.380;0.098;2023-11-21T00:59:54;11.50;99.90
63260;DHT22;49390;51.380;0.098;2023-11-21T01:02:22;11.50;99.90
63260;DHT22;49390;51.380;0.098;2023-11-21T01:04:50;11.50;99.90
63260;DHT22;49390;51.380;0.098;2023-11-21T01:07:18;11.50;99.90
63260;DHT22;49390;51.380;0.098;2023-11-21T01:09:48;11.50;99.90
63260;DHT22;49390;51.380;0.098;2023-11-21T01:12:16;11.50;99.90
63260;DHT22;49390;51.380;0.098;2023-11-21T01:14:45;11.50;99.90
63260;DHT22;49390;51.380;0.098;2023-11-21T01:17:13;11.50;99.90
63260;DHT22;49390;51.380;0.098;2023-11-21T01:19:41;11.50;99.90
63260;DHT22;49390;51.380;0.098;2023-11-21T01:22:08;11.40;99.90
63260;DHT22;49390;51.380;0.098;2023-11-21T01:24:36;11.50;99.90
63260;DHT22;49390;51.380;0.098;2023-11-21T01:27:04;11.50;99.90
63260;DHT22;49390;51.380;0.098;2023-11-21T01:29:32;11.50;99.90
63260;DHT22;49390;51.380;0.098;2023-11-21T01:32:00;11.50;99.90
63260;DHT22;49390;51.380;0.098;2023-11-21T01:34:28;11.40;99.90
63260;DHT22;49390;51.380;0.098;2023-11-21T01:36:55;11.50;99.90
63260;DHT22;49390;51.380;0.098;2023-11-21T01:39:24;11.50;99.90
63260;DHT22;49390;51.380;0.098;2023-11-21T01:41:53;11.50;99.90
63260;DHT22;49390;51.380;0.098;2023-11-21T01:44:21;11.50;99.90
63260;DHT22;49390;51.380;0.098;2023-11-21T01:46:48;11.50;99.90
63260;DHT22;49390;51.380;0.098;2023-11-21T01:49:18;11.50;99.90
63260;DHT22;49390;51.380;0.098;2023-11-21T01:51:48;11.40;99.90
63260;DHT22;49390;51.380;0.098;2023-11-21T01:54:18;11.40;99.90
63260;DHT22;49390;51.380;0.098;2023-11-21T01:56:46;11.40;99.90
63260;DHT22;49390;51.380;0.098;2023-11-21T01:59:18;11.40;99.90
63260;DHT22;49390;51.380;0.098;2023-11-21T02:01:47;11.40;99.90
63260;DHT22;49390;51.380;0.098;2023-11-21T02:04:15;11.40;99.90
63260;DHT22;49390;51.380;0.098;2023-11-21T02:06:43;11.40;99.90
63260;DHT22;49390;51.380;0.098;2023-11-21T02:09:11;11.40;99.90
63260;DHT22;49390;51.380;0.098;2023-11-21T02:11:42;11.40;99.90
63260;DHT22;49390;51.380;0.098;2023-11-21T02:14:10;11.40;99.90
63260;DHT22;49390;51.380;0.098;2023-11-21T02:16:38;11.40;99.90
63260;DHT22;49390;51.380;0.098;2023-11-21T02:19:07;11.40;99.90
63260;DHT22;49390;51.380;0.098;2023-11-21T02:21:37;11.40;99.90
63260;DHT22;49390;51.380;0.098;2023-11-21T02:24:08;11.40;99.90
63260;DHT22;49390;51.380;0.098;2023-11-21T02:26:35;11.40;99.90
63260;DHT22;49390;51.380;0.098;2023-11-21T02:29:03;11.50;99.90
63260;DHT22;49390;51.380;0.098;2023-11-21T02:31:32;11.40;99.90
63260;DHT22;49390;51.380;0.098;2023-11-21T02:34:01;11.50;99.90
63260;DHT22;49390;51.380;0.098;2023-11-21T02:36:29;11.50;99.90
63260;DHT22;49390;51.380;0.098;2023-11-21T02:38:57;11.40;99.90
63260;DHT22;49390;51.380;0.098;2023-11-21T02:41:25;11.50;99.90
63260;DHT22;49390;51.380;0.098;2023-11-21T02:43:53;11.50;99.90
63260;DHT22;49390;51.380;0.098;2023-11-21T02:46:21;11.40;99.90
63260;DHT22;49390;51.380;0.098;2023-11-21T02:48:49;11.50;99.90
63260;DHT22;49390;51.380;0.098;2023-11-21T02:51:18;11.50;99.90
63260;DHT22;49390;51.380;0.098;2023-11-21T02:53:46;11.50;99.90
63260;DHT22;49390;51.380;0.098;2023-11-21T02:56:14;11.50;99.90
63260;DHT22;49390;51.380;0.098;2023-11-21T02:58:42;11.50;99.90
63260;DHT22;49390;51.380;0.098;2023-11-21T03:01:11;11.50;99.90
63260;DHT22;49390;51.380;0.098;2023-11-21T03:03:40;11.50;99.90
63260;DHT22;49390;51.380;0.098;2023-11-21T03:06:09;11.50;99.90
63260;DHT22;49390;51.380;0.098;2023-11-21T03:08:37;11.50;99.90
63260;DHT22;49390;51.380;0.098;2023-11-21T03:11:05;11.40;99.90
63260;DHT22;49390;51.380;0.098;2023-11-21T03:13:32;11.40;99.90
63260;DHT22;49390;51.380;0.098;2023-11-21T03:16:00;11.40;99.90
63260;DHT22;49390;51.380;0.098;2023-11-21T03:18:28;11.40;99.90
63260;DHT22;49390;51.380;0.098;2023-11-21T03:20:56;11.40;99.90
63260;DHT22;49390;51.380;0.098;2023-11-21T03:23:24;11.40;99.90
63260;DHT22;49390;51.380;0.098;2023-11-21T03:25:52;11.40;99.90
63260;DHT22;49390;51.380;0.098;2023-11-21T03:28:20;11.40;99.90
63260;DHT22;49390;51.380;0.098;2023-11-21T03:30:48;11.40;99.90
63260;DHT22;49390;51.380;0.098;2023-11-21T03:33:15;11.40;99.90
63260;DHT22;49390;51.380;0.098;2023-11-21T03:35:43;11.40;99.90
63260;DHT22;49390;51.380;0.098;2023-11-21T03:38:12;11.40;99.90
63260;DHT22;49390;51.380;0.098;2023-11-21T03:40:40;11.40;99.90
63260;DHT22;49390;51.380;0.098;2023-11-21T03:43:08;11.40;99.90
63260;DHT22;49390;51.380;0.098;2023-11-21T03:45:36;11.30;99.90
63260;DHT22;49390;51.380;0.098;2023-11-21T03:48:04;11.30;99.90
63260;DHT22;49390;51.380;0.098;2023-11-21T03:50:32;11.30;99.90
63260;DHT22;49390;51.380;0.098;2023-11-21T03:53:00;11.30;99.90
63260;DHT22;49390;51.380;0.098;2023-11-21T03:55:28;11.30;99.90
63260;DHT22;49390;51.380;0.098;2023-11-21T03:57:57;11.30;99.90
63260;DHT22;49390;51.380;0.098;2023-11-21T04:00:25;11.20;99.90
63260;DHT22;49390;51.380;0.098;2023-11-21T04:02:56;11.20;99.90
63260;DHT22;49390;51.380;0.098;2023-11-21T04:05:24;11.30;99.90
63260;DHT22;49390;51.380;0.098;2023-11-21T04:07:52;11.30;99.90
63260;DHT22;49390;51.380;0.098;2023-11-21T04:10:20;11.20;99.90
63260;DHT22;49390;51.380;0.098;2023-11-21T04:12:48;11.20;99.90
63260;DHT22;49390;51.380;0.098;2023-11-21T04:15:16;11.20;99.90
63260;DHT22;49390;51.380;0.098;2023-11-21T04:17:44;11.20;99.90
63260;DHT22;49390;51.380;0.098;2023-11-21T04:20:12;11.20;99.90
63260;DHT22;49390;51.380;0.098;2023-11-21T04:22:41;11.20;99.90
63260;DHT22;49390;51.380;0.098;2023-11-21T04:25:12;11.10;99.90
63260;DHT22;49390;51.380;0.098;2023-11-21T04:27:41;11.20;99.90
63260;DHT22;49390;51.380;0.098;2023-11-21T04:30:12;11.20;99.90
63260;DHT22;49390;51.380;0.098;2023-11-21T04:32:41;11.10;99.90
63260;DHT22;49390;51.380;0.098;2023-11-21T04:35:09;11.10;99.90
63260;DHT22;49390;51.380;0.098;2023-11-21T04:37:38;11.10;99.90
63260;DHT22;49390;51.380;0.098;2023-11-21T04:40:06;11.20;99.90
63260;DHT22;49390;51.380;0.098;2023-11-21T04:42:35;11.10;99.90
63260;DHT22;49390;51.380;0.098;2023-11-21T04:45:07;11.20;99.90
63260;DHT22;49390;51.380;0.098;2023-11-21T04:47:40;11.10;99.90
63260;DHT22;49390;51.380;0.098;2023-11-21T04:50:08;11.10;99.90
63260;DHT22;49390;51.380;0.098;2023-11-21T04:52:36;11.10;99.90
63260;DHT22;49390;51.380;0.098;2023-11-21T04:55:05;11.10;99.90
63260;DHT22;49390;51.380;0.098;2023-11-21T04:57:34;11.10;99.90
63260;DHT22;49390;51.380;0.098;2023-11-21T05:00:03;11.10;99.90
63260;DHT22;49390;51.380;0.098;2023-11-21T05:02:33;11.10;99.90
63260;DHT22;49390;51.380;0.098;2023-11-21T05:05:06;11.10;99.90
63260;DHT22;49390;51.380;0.098;2023-11-21T05:07:35;11.00;99.90
63260;DHT22;49390;51.380;0.098;2023-11-21T05:10:07;11.00;99.90
63260;DHT22;49390;51.380;0.098;2023-11-21T05:12:39;11.00;99.90
63260;DHT22;49390;51.380;0.098;2023-11-21T05:15:08;11.10;99.90
63260;DHT22;49390;51.380;0.098;2023-11-21T05:17:39;11.00;99.90
63260;DHT22;49390;51.380;0.098;2023-11-21T05:20:12;10.90;99.90
63260;DHT22;49390;51.380;0.098;2023-11-21T05:22:41;10.90;99.90
63260;DHT22;49390;51.380;0.098;2023-11-21T05:25:09;10.90;99.90
63260;DHT22;49390;51.380;0.098;2023-11-21T05:27:39;10.90;99.90
63260;DHT22;49390;51.380;0.098;2023-11-21T05:30:07;10.90;99.90
63260;DHT22;49390;51.380;0.098;2023-11-21T05:32:41;10.90;99.90
63260;DHT22;49390;51.380;0.098;2023-11-21T05:35:11;10.90;99.90
63260;DHT22;49390;51.380;0.098;2023-11-21T05:37:46;10.90;99.90
63260;DHT22;49390;51.380;0.098;2023-11-21T05:40:14;10.80;99.90
63260;DHT22;49390;51.380;0.098;2023-11-21T05:42:43;10.80;99.90
63260;DHT22;49390;51.380;0.098;2023-11-21T05:45:11;10.90;99.90
63260;DHT22;49390;51.380;0.098;2023-11-21T05:47:41;10.80;99.90
63260;DHT22;49390;51.380;0.098;2023-11-21T05:50:10;10.80;99.90
63260;DHT22;49390;51.380;0.098;2023-11-21T05:52:44;10.80;99.90
63260;DHT22;49390;51.380;0.098;2023-11-21T05:55:12;10.80;99.90
63260;DHT22;49390;51.380;0.098;2023-11-21T05:57:42;10.80;99.90
63260;DHT22;49390;51.380;0.098;2023-11-21T06:00:14;10.80;99.90
63260;DHT22;49390;51.380;0.098;2023-11-21T06:02:49;10.70;99.90
63260;DHT22;49390;51.380;0.098;2023-11-21T06:05:20;10.70;99.90
63260;DHT22;49390;51.380;0.098;2023-11-21T06:07:49;10.70;99.90
63260;DHT22;49390;51.380;0.098;2023-11-21T06:10:16;10.70;99.90
63260;DHT22;49390;51.380;0.098;2023-11-21T06:12:47;10.60;99.90
63260;DHT22;49390;51.380;0.098;2023-11-21T06:15:15;10.60;99.90
63260;DHT22;49390;51.380;0.098;2023-11-21T06:17:46;10.60;99.90
63260;DHT22;49390;51.380;0.098;2023-11-21T06:20:17;10.60;99.90
63260;DHT22;49390;51.380;0.098;2023-11-21T06:22:48;10.60;99.90
63260;DHT22;49390;51.380;0.098;2023-11-21T06:25:17;10.60;99.90
63260;DHT22;49390;51.380;0.098;2023-11-21T06:27:47;10.60;99.90
63260;DHT22;49390;51.380;0.098;2023-11-21T06:30:15;10.50;99.90
63260;DHT22;49390;51.380;0.098;2023-11-21T06:32:44;10.60;99.90
63260;DHT22;49390;51.380;0.098;2023-11-21T06:35:15;10.60;99.90
63260;DHT22;49390;51.380;0.098;2023-11-21T06:37:45;10.60;99.90
63260;DHT22;49390;51.380;0.098;2023-11-21T06:40:18;10.60;99.90
63260;DHT22;49390;51.380;0.098;2023-11-21T06:42:48;10.60;99.90
63260;DHT22;49390;51.380;0.098;2023-11-21T06:45:16;10.60;99.90
63260;DHT22;49390;51.380;0.098;2023-11-21T06:47:44;10.60;99.90
63260;DHT22;49390;51.380;0.098;2023-11-21T06:50:13;10.60;99.90
63260;DHT22;49390;51.380;0.098;2023-11-21T06:52:41;10.60;99.90
63260;DHT22;49390;51.380;0.098;2023-11-21T06:55:09;10.60;99.90
63260;DHT22;49390;51.380;0.098;2023-11-21T06:57:37;10.60;99.90
63260;DHT22;49390;51.380;0.098;2023-11-21T07:00:06;10.50;99.90
63260;DHT22;49390;51.380;0.098;2023-11-21T07:02:37;10.50;99.90
63260;DHT22;49390;51.380;0.098;2023-11-21T07:05:06;10.50;99.90
63260;DHT22;49390;51.380;0.098;2023-11-21T07:07:34;10.50;99.90
63260;DHT22;49390;51.380;0.098;2023-11-21T07:10:04;10.40;99.90
63260;DHT22;49390;51.380;0.098;2023-11-21T07:12:33;10.40;99.90
63260;DHT22;49390;51.380;0.098;2023-11-21T07:15:02;10.30;99.90
63260;DHT22;49390;51.380;0.098;2023-11-21T07:17:31;10.40;99.90
63260;DHT22;49390;51.380;0.098;2023-11-21T07:19:59;10.30;99.90
63260;DHT22;49390;51.380;0.098;2023-11-21T07:22:27;10.40;99.90
63260;DHT22;49390;51.380;0.098;2023-11-21T07:24:55;10.40;99.90
63260;DHT22;49390;51.380;0.098;2023-11-21T07:27:24;10.40;99.90
63260;DHT22;49390;51.380;0.098;2023-11-21T07:29:52;10.30;99.90
63260;DHT22;49390;51.380;0.098;2023-11-21T07:32:19;10.30;99.90
63260;DHT22;49390;51.380;0.098;2023-11-21T07:34:48;10.30;99.90
63260;DHT22;49390;51.380;0.098;2023-11-21T07:37:16;10.30;99.90
63260;DHT22;49390;51.380;0.098;2023-11-21T07:39:44;10.20;99.90
63260;DHT22;49390;51.380;0.098;2023-11-21T07:42:12;10.20;99.90
63260;DHT22;49390;51.380;0.098;2023-11-21T07:44:39;10.20;99.90
63260;DHT22;49390;51.380;0.098;2023-11-21T07:47:07;10.20;99.90
63260;DHT22;49390;51.380;0.098;2023-11-21T07:49:35;10.20;99.90
63260;DHT22;49390;51.380;0.098;2023-11-21T07:52:03;10.30;99.90
63260;DHT22;49390;51.380;0.098;2023-11-21T07:54:31;10.20;99.90
63260;DHT22;49390;51.380;0.098;2023-11-21T07:56:59;10.20;99.90
63260;DHT22;49390;51.380;0.098;2023-11-21T07:59:26;10.20;99.90
63260;DHT22;49390;51.380;0.098;2023-11-21T08:01:54;10.30;99.90
63260;DHT22;49390;51.380;0.098;2023-11-21T08:04:22;10.20;99.90
63260;DHT22;49390;51.380;0.098;2023-11-21T08:06:51;10.20;99.90
63260;DHT22;49390;51.380;0.098;2023-11-21T08:09:18;10.20;99.90
63260;DHT22;49390;51.380;0.098;2023-11-21T08:11:46;10.20;99.90
63260;DHT22;49390;51.380;0.098;2023-11-21T08:14:14;10.20;99.90
63260;DHT22;49390;51.380;0.098;2023-11-21T08:16:43;10.20;99.90
63260;DHT22;49390;51.380;0.098;2023-11-21T08:19:12;10.20;99.90
63260;DHT22;49390;51.380;0.098;2023-11-21T08:21:40;10.20;99.90
63260;DHT22;49390;51.380;0.098;2023-11-21T08:24:07;10.20;99.90
63260;DHT22;49390;51.380;0.098;2023-11-21T08:26:38;10.20;99.90
63260;DHT22;49390;51.380;0.098;2023-11-21T08:29:06;10.20;99.90
63260;DHT22;49390;51.380;0.098;2023-11-21T08:31:35;10.30;99.90
63260;DHT22;49390;51.380;0.098;2023-11-21T08:34:02;10.20;99.90
63260;DHT22;49390;51.380;0.098;2023-11-21T08:36:30;10.20;99.90
63260;DHT22;49390;51.380;0.098;2023-11-21T08:38:59;10.30;99.90
63260;DHT22;49390;51.380;0.098;2023-11-21T08:41:27;10.30;99.90
63260;DHT22;49390;51.380;0.098;2023-11-21T08:43:55;10.30;99.90
63260;DHT22;49390;51.380;0.098;2023-11-21T08:46:23;10.30;99.90
63260;DHT22;49390;51.380;0.098;2023-11-21T08:48:53;10.30;99.90
63260;DHT22;49390;51.380;0.098;2023-11-21T08:51:21;10.30;99.90
63260;DHT22;49390;51.380;0.098;2023-11-21T08:53:48;10.40;99.90
63260;DHT22;49390;51.380;0.098;2023-11-21T08:56:16;10.40;99.90
63260;DHT22;49390;51.380;0.098;2023-11-21T08:58:46;10.40;99.90
63260;DHT22;49390;51.380;0.098;2023-11-21T09:01:18;10.40;99.90
63260;DHT22;49390;51.380;0.098;2023-11-21T09:03:46;10.40;99.90
63260;DHT22;49390;51.380;0.098;2023-11-21T09:06:15;10.50;99.90
63260;DHT22;49390;51.380;0.098;2023-11-21T09:08:43;10.50;99.90
63260;DHT22;49390;51.380;0.098;2023-11-21T09:11:11;10.50;99.90
63260;DHT22;49390;51.380;0.098;2023-11-21T09:13:39;10.40;99.90
63260;DHT22;49390;51.380;0.098;2023-11-21T09:16:07;10.40;99.90
63260;DHT22;49390;51.380;0.098;2023-11-21T09:18:34;10.40;99.90
63260;DHT22;49390;51.380;0.098;2023-11-21T09:21:03;10.40;99.90
63260;DHT22;49390;51.380;0.098;2023-11-21T09:23:31;10.40;99.90
63260;DHT22;49390;51.380;0.098;2023-11-21T09:25:59;10.40;99.90
63260;DHT22;49390;51.380;0.098;2023-11-21T09:28:28;10.40;99.90
63260;DHT22;49390;51.380;0.098;2023-11-21T09:30:56;10.50;99.90
63260;DHT22;49390;51.380;0.098;2023-11-21T09:33:23;10.50;99.90
63260;DHT22;49390;51.380;0.098;2023-11-21T09:35:52;10.50;99.90
63260;DHT22;49390;51.380;0.098;2023-11-21T09:38:21;10.60;99.90
63260;DHT22;49390;51.380;0.098;2023-11-21T09:40:49;10.70;99.90
63260;DHT22;49390;51.380;0.098;2023-11-21T09:43:21;10.60;99.90
63260;DHT22;49390;51.380;0.098;2023-11-21T09:45:56;10.60;99.90
63260;DHT22;49390;51.380;0.098;2023-11-21T09:48:26;10.70;99.90
63260;DHT22;49390;51.380;0.098;2023-11-21T09:50:54;10.70;99.90
63260;DHT22;49390;51.380;0.098;2023-11-21T09:53:22;10.70;99.90
63260;DHT22;49390;51.380;0.098;2023-11-21T09:55:53;10.80;99.90
63260;DHT22;49390;51.380;0.098;2023-11-21T09:58:21;10.80;99.90
63260;DHT22;49390;51.380;0.098;2023-11-21T10:00:53;10.90;99.90
63260;DHT22;49390;51.380;0.098;2023-11-21T10:03:21;10.90;99.90
63260;DHT22;49390;51.380;0.098;2023-11-21T10:05:50;10.90;99.90
63260;DHT22;49390;51.380;0.098;2023-11-21T10:08:20;10.90;99.90
63260;DHT22;49390;51.380;0.098;2023-11-21T10:10:51;10.90;99.90
63260;DHT22;49390;51.380;0.098;2023-11-21T10:13:20;10.90;99.90
63260;DHT22;49390;51.380;0.098;2023-11-21T10:15:50;10.90;99.90
63260;DHT22;49390;51.380;0.098;2023-11-21T10:18:18;10.90;99.90
63260;DHT22;49390;51.380;0.098;2023-11-21T10:20:47;11.00;99.90
63260;DHT22;49390;51.380;0.098;2023-11-21T10:23:21;11.00;99.90
63260;DHT22;49390;51.380;0.098;2023-11-21T10:25:54;11.10;99.90
63260;DHT22;49390;51.380;0.098;2023-11-21T10:28:25;11.10;99.90
63260;DHT22;49390;51.380;0.098;2023-11-21T10:30:52;11.10;99.90
63260;DHT22;49390;51.380;0.098;2023-11-21T10:33:27;11.10;99.90
63260;DHT22;49390;51.380;0.098;2023-11-21T10:35:55;11.10;99.90
63260;DHT22;49390;51.380;0.098;2023-11-21T10:38:23;11.20;99.90
63260;DHT22;49390;51.380;0.098;2023-11-21T10:40:52;11.20;99.90
63260;DHT22;49390;51.380;0.098;2023-11-21T10:43:25;11.20;99.90
63260;DHT22;49390;51.380;0.098;2023-11-21T10:45:57;11.20;99.90
63260;DHT22;49390;51.380;0.098;2023-11-21T10:48:27;11.30;99.90
63260;DHT22;49390;51.380;0.098;2023-11-21T10:50:55;11.20;99.90
63260;DHT22;49390;51.380;0.098;2023-11-21T10:53:28;11.30;99.90
63260;DHT22;49390;51.380;0.098;2023-11-21T10:56:06;11.30;99.90
63260;DHT22;49390;51.380;0.098;2023-11-21T10:58:35;11.30;99.90
63260;DHT22;49390;51.380;0.098;2023-11-21T11:01:06;11.40;99.90
63260;DHT22;49390;51.380;0.098;2023-11-21T11:03:36;11.40;99.90
63260;DHT22;49390;51.380;0.098;2023-11-21T11:06:05;11.40;99.90
63260;DHT22;49390;51.380;0.098;2023-11-21T11:08:39;11.40;99.90
63260;DHT22;49390;51.380;0.098;2023-11-21T11:11:10;11.40;99.90
63260;DHT22;49390;51.380;0.098;2023-11-21T11:13:38;11.50;99.90
63260;DHT22;49390;51.380;0.098;2023-11-21T11:16:08;11.50;99.90
63260;DHT22;49390;51.380;0.098;2023-11-21T11:18:38;11.50;99.90
63260;DHT22;49390;51.380;0.098;2023-11-21T11:21:23;11.50;99.90
63260;DHT22;49390;51.380;0.098;2023-11-21T11:32:51;11.50;99.90
63260;DHT22;49390;51.380;0.098;2023-11-21T11:37:58;11.60;99.90
63260;DHT22;49390;51.380;0.098;2023-11-21T11:40:48;11.60;99.90
63260;DHT22;49390;51.380;0.098;2023-11-21T11:43:28;11.60;99.90
63260;DHT22;49390;51.380;0.098;2023-11-21T11:45:57;11.70;99.90
63260;DHT22;49390;51.380;0.098;2023-11-21T11:48:26;11.70;99.90
63260;DHT22;49390;51.380;0.098;2023-11-21T11:51:14;11.60;99.90
63260;DHT22;49390;51.380;0.098;2023-11-21T11:53:48;11.70;99.90
63260;DHT22;49390;51.380;0.098;2023-11-21T11:56:29;11.70;99.90
63260;DHT22;49390;51.380;0.098;2023-11-21T11:59:03;11.70;99.90
63260;DHT22;49390;51.380;0.098;2023-11-21T12:01:33;11.60;99.90
63260;DHT22;49390;51.380;0.098;2023-11-21T12:06:42;11.70;99.90
63260;DHT22;49390;51.380;0.098;2023-11-21T12:09:22;11.70;99.90
63260;DHT22;49390;51.380;0.098;2023-11-21T12:11:50;11.70;99.90
63260;DHT22;49390;51.380;0.098;2023-11-21T12:14:18;11.70;99.90
63260;DHT22;49390;51.380;0.098;2023-11-21T12:16:46;11.60;99.90
63260;DHT22;49390;51.380;0.098;2023-11-21T12:19:15;11.60;99.90
63260;DHT22;49390;51.380;0.098;2023-11-21T12:24:03;11.70;99.90
63260;DHT22;49390;51.380;0.098;2023-11-21T12:26:31;11.70;99.90
63260;DHT22;49390;51.380;0.098;2023-11-21T12:28:59;11.80;99.90
63260;DHT22;49390;51.380;0.098;2023-11-21T12:31:28;11.80;99.90
63260;DHT22;49390;51.380;0.098;2023-11-21T12:33:57;11.90;99.90
63260;DHT22;49390;51.380;0.098;2023-11-21T12:36:25;11.80;99.90
63260;DHT22;49390;51.380;0.098;2023-11-21T12:38:54;11.90;99.90
63260;DHT22;49390;51.380;0.098;2023-11-21T12:41:22;11.90;99.90
63260;DHT22;49390;51.380;0.098;2023-11-21T12:43:49;11.90;99.90
63260;DHT22;49390;51.380;0.098;2023-11-21T12:46:18;11.90;99.90
63260;DHT22;49390;51.380;0.098;2023-11-21T12:48:47;12.00;99.90
63260;DHT22;49390;51.380;0.098;2023-11-21T12:51:15;11.90;99.90
63260;DHT22;49390;51.380;0.098;2023-11-21T12:53:43;11.90;99.90
63260;DHT22;49390;51.380;0.098;2023-11-21T12:56:12;11.90;99.90
63260;DHT22;49390;51.380;0.098;2023-11-21T12:58:46;11.90;99.90
63260;DHT22;49390;51.380;0.098;2023-11-21T13:01:19;11.90;99.90
63260;DHT22;49390;51.380;0.098;2023-11-21T13:03:50;11.90;99.90
63260;DHT22;49390;51.380;0.098;2023-11-21T13:06:19;11.90;99.90
63260;DHT22;49390;51.380;0.098;2023-11-21T13:08:49;11.90;99.90
63260;DHT22;49390;51.380;0.098;2023-11-21T13:11:17;11.90;99.90
63260;DHT22;49390;51.380;0.098;2023-11-21T13:13:45;12.00;99.90
63260;DHT22;49390;51.380;0.098;2023-11-21T13:16:13;12.00;99.90
63260;DHT22;49390;51.380;0.098;2023-11-21T13:18:42;12.00;99.90
63260;DHT22;49390;51.380;0.098;2023-11-21T13:21:11;12.00;99.90
63260;DHT22;49390;51.380;0.098;2023-11-21T13:23:44;12.00;99.90
63260;DHT22;49390;51.380;0.098;2023-11-21T13:26:14;12.00;99.90
63260;DHT22;49390;51.380;0.098;2023-11-21T13:28:43;12.00;99.90
63260;DHT22;49390;51.380;0.098;2023-11-21T13:31:15;11.90;99.90
63260;DHT22;49390;51.380;0.098;2023-11-21T13:33:53;12.00;99.90
63260;DHT22;49390;51.380;0.098;2023-11-21T13:36:32;12.00;99.90
63260;DHT22;49390;51.380;0.098;2023-11-21T13:39:03;12.00;99.90
63260;DHT22;49390;51.380;0.098;2023-11-21T13:41:35;12.00;99.90
63260;DHT22;49390;51.380;0.098;2023-11-21T13:44:05;12.00;99.90
63260;DHT22;49390;51.380;0.098;2023-11-21T13:46:55;12.10;99.90
63260;DHT22;49390;51.380;0.098;2023-11-21T13:49:25;12.10;99.90
63260;DHT22;49390;51.380;0.098;2023-11-21T13:51:54;12.10;99.90
63260;DHT22;49390;51.380;0.098;2023-11-21T13:54:22;12.10;99.90
63260;DHT22;49390;51.380;0.098;2023-11-21T13:56:52;12.00;99.90
63260;DHT22;49390;51.380;0.098;2023-11-21T13:59:20;12.00;99.90
63260;DHT22;49390;51.380;0.098;2023-11-21T14:01:55;12.00;99.90
63260;DHT22;49390;51.380;0.098;2023-11-21T14:04:26;12.00;99.90
63260;DHT22;49390;51.380;0.098;2023-11-21T14:07:03;12.00;99.90
63260;DHT22;49390;51.380;0.098;2023-11-21T14:09:48;12.10;99.90
63260;DHT22;49390;51.380;0.098;2023-11-21T14:12:17;12.10;99.90
63260;DHT22;49390;51.380;0.098;2023-11-21T14:14:45;12.00;99.90
63260;DHT22;49390;51.380;0.098;2023-11-21T14:17:25;12.00;99.90
63260;DHT22;49390;51.380;0.098;2023-11-21T14:19:54;12.00;99.90
63260;DHT22;49390;51.380;0.098;2023-11-21T14:22:24;11.90;99.90
63260;DHT22;49390;51.380;0.098;2023-11-21T14:24:53;11.90;99.90
63260;DHT22;49390;51.380;0.098;2023-11-21T14:27:23;11.80;99.90
63260;DHT22;49390;51.380;0.098;2023-11-21T14:29:52;11.80;99.90
63260;DHT22;49390;51.380;0.098;2023-11-21T14:32:20;11.80;99.90
63260;DHT22;49390;51.380;0.098;2023-11-21T14:34:49;11.70;99.90
63260;DHT22;49390;51.380;0.098;2023-11-21T14:37:18;11.70;99.90
63260;DHT22;49390;51.380;0.098;2023-11-21T14:39:47;11.60;99.90
63260;DHT22;49390;51.380;0.098;2023-11-21T14:42:18;11.60;99.90
63260;DHT22;49390;51.380;0.098;2023-11-21T14:44:52;11.70;99.90
63260;DHT22;49390;51.380;0.098;2023-11-21T14:47:22;11.70;99.90
63260;DHT22;49390;51.380;0.098;2023-11-21T14:49:54;11.60;99.90
63260;DHT22;49390;51.380;0.098;2023-11-21T14:52:24;11.50;99.90
63260;DHT22;49390;51.380;0.098;2023-11-21T14:55:04;11.50;99.90
63260;DHT22;49390;51.380;0.098;2023-11-21T14:57:52;11.40;99.90
63260;DHT22;49390;51.380;0.098;2023-11-21T15:00:21;11.40;99.90
63260;DHT22;49390;51.380;0.098;2023-11-21T15:03:02;11.40;99.90
63260;DHT22;49390;51.380;0.098;2023-11-21T15:05:31;11.30;99.90
63260;DHT22;49390;51.380;0.098;2023-11-21T15:07:59;11.30;99.90
63260;DHT22;49390;51.380;0.098;2023-11-21T15:10:41;11.30;99.90
63260;DHT22;49390;51.380;0.098;2023-11-21T15:13:21;11.30;99.90
63260;DHT22;49390;51.380;0.098;2023-11-21T15:15:53;11.20;99.90
63260;DHT22;49390;51.380;0.098;2023-11-21T15:18:28;11.10;99.90
63260;DHT22;49390;51.380;0.098;2023-11-21T15:20:56;11.10;99.90
63260;DHT22;49390;51.380;0.098;2023-11-21T15:23:24;11.20;99.90
63260;DHT22;49390;51.380;0.098;2023-11-21T15:25:52;11.10;99.90
63260;DHT22;49390;51.380;0.098;2023-11-21T15:28:20;11.00;99.90
63260;DHT22;49390;51.380;0.098;2023-11-21T15:30:48;11.10;99.90
63260;DHT22;49390;51.380;0.098;2023-11-21T15:33:19;11.10;99.90
63260;DHT22;49390;51.380;0.098;2023-11-21T15:35:46;11.10;99.90
63260;DHT22;49390;51.380;0.098;2023-11-21T15:38:14;11.10;99.90
63260;DHT22;49390;51.380;0.098;2023-11-21T15:40:42;11.10;99.90
63260;DHT22;49390;51.380;0.098;2023-11-21T15:43:11;11.10;99.90
63260;DHT22;49390;51.380;0.098;2023-11-21T15:45:39;11.10;99.90
63260;DHT22;49390;51.380;0.098;2023-11-21T15:48:08;11.10;99.90
63260;DHT22;49390;51.380;0.098;2023-11-21T15:50:37;11.10;99.90
63260;DHT22;49390;51.380;0.098;2023-11-21T15:53:05;11.00;99.90
63260;DHT22;49390;51.380;0.098;2023-11-21T15:55:33;10.90;99.90
63260;DHT22;49390;51.380;0.098;2023-11-21T15:58:03;10.90;99.90
63260;DHT22;49390;51.380;0.098;2023-11-21T16:00:34;10.80;99.90